sensor_id;sensor_type;location;lat;lon;timestamp;temperature;humidity
2973;DHT22;1496;51.404;7.232;2023-04-03T00:01:05;2.70;99.90
2973;DHT22;1496;51.404;7.232;2023-04-03T00:03:34;2.80;99.90
2973;DHT22;1496;51.404;7.232;2023-04-03T00:06:02;2.80;99.90
2973;DHT22;1496;51.404;7.232;2023-04-03T00:08:29;2.70;99.90
2973;DHT22;1496;51.404;7.232;2023-04-03T00:10:57;2.70;99.90
2973;DHT22;1496;51.404;7.232;2023-04-03T00:13:25;2.60;99.90
2973;DHT22;1496;51.404;7.232;2023-04-03T00:15:52;2.50;99.90
2973;DHT22;1496;51.404;7.232;2023-04-03T00:18:22;2.30;99.90
2973;DHT22;1496;51.404;7.232;2023-04-03T00:20:49;2.30;99.90
2973;DHT22;1496;51.404;7.232;2023-04-03T00:23:16;2.30;99.90
2973;DHT22;1496;51.404;7.232;2023-04-03T00:25:43;2.30;99.90
2973;DHT22;1496;51.404;7.232;2023-04-03T00:28:11;2.40;99.90
2973;DHT22;1496;51.404;7.232;2023-04-03T00:30:38;2.40;99.90
2973;DHT22;1496;51.404;7.232;2023-04-03T00:33:05;2.50;99.90
2973;DHT22;1496;51.404;7.232;2023-04-03T00:35:34;2.30;99.90
2973;DHT22;1496;51.404;7.232;2023-04-03T00:38:01;2.30;99.90
2973;DHT22;1496;51.404;7.232;2023-04-03T00:40:37;2.20;99.90
2973;DHT22;1496;51.404;7.232;2023-04-03T00:43:22;2.30;99.90
2973;DHT22;1496;51.404;7.232;2023-04-03T00:45:57;2.30;99.90
2973;DHT22;1496;51.404;7.232;2023-04-03T00:48:42;2.30;99.90
2973;DHT22;1496;51.404;7.232;2023-04-03T00:51:14;2.30;99.90
2973;DHT22;1496;51.404;7.232;2023-04-03T00:53:49;2.30;99.90
2973;DHT22;1496;51.404;7.232;2023-04-03T00:56:21;2.30;99.90
2973;DHT22;1496;51.404;7.232;2023-04-03T00:59:21;2.30;99.90
2973;DHT22;1496;51.404;7.232;2023-04-03T01:01:54;2.30;99.90
2973;DHT22;1496;51.404;7.232;2023-04-03T01:04:34;2.20;99.90
2973;DHT22;1496;51.404;7.232;2023-04-03T01:07:10;2.20;99.90
2973;DHT22;1496;51.404;7.232;2023-04-03T01:09:39;2.10;99.90
2973;DHT22;1496;51.404;7.232;2023-04-03T01:12:23;2.00;99.90
2973;DHT22;1496;51.404;7.232;2023-04-03T01:15:15;2.00;99.90
2973;DHT22;1496;51.404;7.232;2023-04-03T01:17:45;2.00;99.90
2973;DHT22;1496;51.404;7.232;2023-04-03T01:25:40;1.70;99.90
2973;DHT22;1496;51.404;7.232;2023-04-03T01:28:14;1.70;99.90
2973;DHT22;1496;51.404;7.232;2023-04-03T01:30:52;1.70;99.90
2973;DHT22;1496;51.404;7.232;2023-04-03T01:33:20;1.80;99.90
2973;DHT22;1496;51.404;7.232;2023-04-03T01:35:48;1.60;99.90
2973;DHT22;1496;51.404;7.232;2023-04-03T01:38:15;1.60;99.90
2973;DHT22;1496;51.404;7.232;2023-04-03T01:40:42;1.50;99.90
2973;DHT22;1496;51.404;7.232;2023-04-03T01:43:10;1.50;99.90
2973;DHT22;1496;51.404;7.232;2023-04-03T01:45:37;1.50;99.90
2973;DHT22;1496;51.404;7.232;2023-04-03T01:48:04;1.50;99.90
2973;DHT22;1496;51.404;7.232;2023-04-03T01:50:32;1.50;99.90
2973;DHT22;1496;51.404;7.232;2023-04-03T01:52:59;1.50;99.90
2973;DHT22;1496;51.404;7.232;2023-04-03T01:55:29;1.50;99.90
2973;DHT22;1496;51.404;7.232;2023-04-03T01:57:57;1.50;99.90
2973;DHT22;1496;51.404;7.232;2023-04-03T02:00:26;1.50;99.90
2973;DHT22;1496;51.404;7.232;2023-04-03T02:02:57;1.50;99.90
2973;DHT22;1496;51.404;7.232;2023-04-03T02:05:23;1.60;99.90
2973;DHT22;1496;51.404;7.232;2023-04-03T02:07:54;1.50;99.90
2973;DHT22;1496;51.404;7.232;2023-04-03T02:10:20;1.50;99.90
2973;DHT22;1496;51.404;7.232;2023-04-03T02:12:51;1.50;99.90
2973;DHT22;1496;51.404;7.232;2023-04-03T02:15:19;1.60;99.90
2973;DHT22;1496;51.404;7.232;2023-04-03T02:17:53;1.70;99.90
2973;DHT22;1496;51.404;7.232;2023-04-03T02:20:21;1.60;99.90
2973;DHT22;1496;51.404;7.232;2023-04-03T02:22:49;1.60;99.90
2973;DHT22;1496;51.404;7.232;2023-04-03T02:25:16;1.70;99.90
2973;DHT22;1496;51.404;7.232;2023-04-03T02:27:43;1.70;99.90
2973;DHT22;1496;51.404;7.232;2023-04-03T02:30:11;1.70;99.90
2973;DHT22;1496;51.404;7.232;2023-04-03T02:32:41;1.70;99.90
2973;DHT22;1496;51.404;7.232;2023-04-03T02:35:10;1.70;99.90
2973;DHT22;1496;51.404;7.232;2023-04-03T02:37:37;1.60;99.90
2973;DHT22;1496;51.404;7.232;2023-04-03T02:40:04;1.60;99.90
2973;DHT22;1496;51.404;7.232;2023-04-03T02:42:35;1.70;99.90
2973;DHT22;1496;51.404;7.232;2023-04-03T02:45:03;1.60;99.90
2973;DHT22;1496;51.404;7.232;2023-04-03T02:47:30;1.60;99.90
2973;DHT22;1496;51.404;7.232;2023-04-03T02:50:00;1.60;99.90
2973;DHT22;1496;51.404;7.232;2023-04-03T02:52:27;1.60;99.90
2973;DHT22;1496;51.404;7.232;2023-04-03T02:54:57;1.60;99.90
2973;DHT22;1496;51.404;7.232;2023-04-03T02:57:25;1.60;99.90
2973;DHT22;1496;51.404;7.232;2023-04-03T02:59:52;1.50;99.90
2973;DHT22;1496;51.404;7.232;2023-04-03T03:02:20;1.40;99.90
2973;DHT22;1496;51.404;7.232;2023-04-03T03:04:48;1.30;99.90
2973;DHT22;1496;51.404;7.232;2023-04-03T03:07:14;1.30;99.90
2973;DHT22;1496;51.404;7.232;2023-04-03T03:09:41;1.30;99.90
2973;DHT22;1496;51.404;7.232;2023-04-03T03:12:09;1.30;99.90
2973;DHT22;1496;51.404;7.232;2023-04-03T03:14:36;1.30;99.90
2973;DHT22;1496;51.404;7.232;2023-04-03T03:17:04;1.30;99.90
2973;DHT22;1496;51.404;7.232;2023-04-03T03:19:31;1.30;99.90
2973;DHT22;1496;51.404;7.232;2023-04-03T03:21:57;1.30;99.90
2973;DHT22;1496;51.404;7.232;2023-04-03T03:24:26;1.30;99.90
2973;DHT22;1496;51.404;7.232;2023-04-03T03:26:53;1.40;99.90
2973;DHT22;1496;51.404;7.232;2023-04-03T03:29:23;1.40;99.90
2973;DHT22;1496;51.404;7.232;2023-04-03T03:31:50;1.40;99.90
2973;DHT22;1496;51.404;7.232;2023-04-03T03:34:18;1.50;99.90
2973;DHT22;1496;51.404;7.232;2023-04-03T03:36:45;1.40;99.90
2973;DHT22;1496;51.404;7.232;2023-04-03T03:39:13;1.40;99.90
2973;DHT22;1496;51.404;7.232;2023-04-03T03:41:42;1.40;99.90
2973;DHT22;1496;51.404;7.232;2023-04-03T03:44:09;1.40;99.90
2973;DHT22;1496;51.404;7.232;2023-04-03T03:46:36;1.30;99.90
2973;DHT22;1496;51.404;7.232;2023-04-03T03:49:04;1.30;99.90
2973;DHT22;1496;51.404;7.232;2023-04-03T03:51:33;1.20;99.90
2973;DHT22;1496;51.404;7.232;2023-04-03T03:54:01;1.20;99.90
2973;DHT22;1496;51.404;7.232;2023-04-03T03:56:29;1.10;99.90
2973;DHT22;1496;51.404;7.232;2023-04-03T03:58:56;1.10;99.90
2973;DHT22;1496;51.404;7.232;2023-04-03T04:01:24;1.10;99.90
2973;DHT22;1496;51.404;7.232;2023-04-03T04:03:51;1.10;99.90
2973;DHT22;1496;51.404;7.232;2023-04-03T04:06:24;1.00;99.90
2973;DHT22;1496;51.404;7.232;2023-04-03T04:08:59;1.00;99.90
2973;DHT22;1496;51.404;7.232;2023-04-03T04:11:26;1.00;99.90
2973;DHT22;1496;51.404;7.232;2023-04-03T04:13:55;0.90;99.90
2973;DHT22;1496;51.404;7.232;2023-04-03T04:16:25;0.90;99.90
2973;DHT22;1496;51.404;7.232;2023-04-03T04:18:55;0.90;99.90
2973;DHT22;1496;51.404;7.232;2023-04-03T04:21:22;0.90;99.90
2973;DHT22;1496;51.404;7.232;2023-04-03T04:23:52;0.80;99.90
2973;DHT22;1496;51.404;7.232;2023-04-03T04:26:20;0.80;99.90
2973;DHT22;1496;51.404;7.232;2023-04-03T04:28:47;0.80;99.90
2973;DHT22;1496;51.404;7.232;2023-04-03T04:31:17;0.80;99.90
2973;DHT22;1496;51.404;7.232;2023-04-03T04:33:45;0.80;99.90
2973;DHT22;1496;51.404;7.232;2023-04-03T04:36:15;0.80;99.90
2973;DHT22;1496;51.404;7.232;2023-04-03T04:38:44;0.80;99.90
2973;DHT22;1496;51.404;7.232;2023-04-03T04:41:12;0.80;99.90
2973;DHT22;1496;51.404;7.232;2023-04-03T04:43:39;0.90;99.90
2973;DHT22;1496;51.404;7.232;2023-04-03T04:46:08;0.90;99.90
2973;DHT22;1496;51.404;7.232;2023-04-03T04:48:42;0.90;99.90
2973;DHT22;1496;51.404;7.232;2023-04-03T04:51:11;0.90;99.90
2973;DHT22;1496;51.404;7.232;2023-04-03T04:53:41;0.90;99.90
2973;DHT22;1496;51.404;7.232;2023-04-03T04:56:11;0.90;99.90
2973;DHT22;1496;51.404;7.232;2023-04-03T04:58:39;0.90;99.90
2973;DHT22;1496;51.404;7.232;2023-04-03T05:01:09;1.00;99.90
2973;DHT22;1496;51.404;7.232;2023-04-03T05:03:44;1.00;99.90
2973;DHT22;1496;51.404;7.232;2023-04-03T05:06:13;0.90;99.90
2973;DHT22;1496;51.404;7.232;2023-04-03T05:08:44;0.90;99.90
2973;DHT22;1496;51.404;7.232;2023-04-03T05:11:11;0.90;99.90
2973;DHT22;1496;51.404;7.232;2023-04-03T05:13:39;0.90;99.90
2973;DHT22;1496;51.404;7.232;2023-04-03T05:16:08;0.90;99.90
2973;DHT22;1496;51.404;7.232;2023-04-03T05:18:36;0.90;99.90
2973;DHT22;1496;51.404;7.232;2023-04-03T05:21:06;1.00;99.90
2973;DHT22;1496;51.404;7.232;2023-04-03T05:23:35;0.90;99.90
2973;DHT22;1496;51.404;7.232;2023-04-03T05:26:04;0.90;99.90
2973;DHT22;1496;51.404;7.232;2023-04-03T05:28:31;0.90;99.90
2973;DHT22;1496;51.404;7.232;2023-04-03T05:30:59;0.90;99.90
2973;DHT22;1496;51.404;7.232;2023-04-03T05:33:32;0.90;99.90
2973;DHT22;1496;51.404;7.232;2023-04-03T05:36:07;0.90;99.90
2973;DHT22;1496;51.404;7.232;2023-04-03T05:38:41;0.90;99.90
2973;DHT22;1496;51.404;7.232;2023-04-03T05:41:08;0.90;99.90
2973;DHT22;1496;51.404;7.232;2023-04-03T05:43:34;0.90;99.90
2973;DHT22;1496;51.404;7.232;2023-04-03T05:46:08;0.90;99.90
2973;DHT22;1496;51.404;7.232;2023-04-03T05:48:35;0.90;99.90
2973;DHT22;1496;51.404;7.232;2023-04-03T05:51:13;0.90;99.90
2973;DHT22;1496;51.404;7.232;2023-04-03T05:53:43;1.00;99.90
2973;DHT22;1496;51.404;7.232;2023-04-03T05:56:12;0.90;99.90
2973;DHT22;1496;51.404;7.232;2023-04-03T05:58:40;0.90;99.90
2973;DHT22;1496;51.404;7.232;2023-04-03T06:01:08;1.00;99.90
2973;DHT22;1496;51.404;7.232;2023-04-03T06:03:38;1.00;99.90
2973;DHT22;1496;51.404;7.232;2023-04-03T06:06:06;1.00;99.90
2973;DHT22;1496;51.404;7.232;2023-04-03T06:08:38;1.00;99.90
2973;DHT22;1496;51.404;7.232;2023-04-03T06:11:06;1.10;99.90
2973;DHT22;1496;51.404;7.232;2023-04-03T06:13:36;1.20;99.90
2973;DHT22;1496;51.404;7.232;2023-04-03T06:16:08;1.20;99.90
2973;DHT22;1496;51.404;7.232;2023-04-03T06:18:53;1.20;99.90
2973;DHT22;1496;51.404;7.232;2023-04-03T06:21:22;1.10;99.90
2973;DHT22;1496;51.404;7.232;2023-04-03T06:23:51;1.10;99.90
2973;DHT22;1496;51.404;7.232;2023-04-03T06:26:19;1.10;99.90
2973;DHT22;1496;51.404;7.232;2023-04-03T06:28:47;1.20;99.90
2973;DHT22;1496;51.404;7.232;2023-04-03T06:31:14;1.30;99.90
2973;DHT22;1496;51.404;7.232;2023-04-03T06:33:42;1.50;99.90
2973;DHT22;1496;51.404;7.232;2023-04-03T06:36:11;1.50;99.90
2973;DHT22;1496;51.404;7.232;2023-04-03T06:38:38;1.60;99.90
2973;DHT22;1496;51.404;7.232;2023-04-03T06:41:06;1.60;99.90
2973;DHT22;1496;51.404;7.232;2023-04-03T06:43:34;1.70;99.90
2973;DHT22;1496;51.404;7.232;2023-04-03T06:46:01;1.70;99.90
2973;DHT22;1496;51.404;7.232;2023-04-03T06:48:29;1.70;99.90
2973;DHT22;1496;51.404;7.232;2023-04-03T06:50:57;1.90;99.90
2973;DHT22;1496;51.404;7.232;2023-04-03T06:53:24;1.90;99.90
2973;DHT22;1496;51.404;7.232;2023-04-03T06:55:52;2.00;99.90
2973;DHT22;1496;51.404;7.232;2023-04-03T06:58:19;2.00;99.90
2973;DHT22;1496;51.404;7.232;2023-04-03T07:00:47;2.00;99.90
2973;DHT22;1496;51.404;7.232;2023-04-03T07:03:17;2.10;99.90
2973;DHT22;1496;51.404;7.232;2023-04-03T07:05:45;2.10;99.90
2973;DHT22;1496;51.404;7.232;2023-04-03T07:08:11;2.10;99.90
2973;DHT22;1496;51.404;7.232;2023-04-03T07:10:41;2.10;99.90
2973;DHT22;1496;51.404;7.232;2023-04-03T07:13:10;2.10;99.90
2973;DHT22;1496;51.404;7.232;2023-04-03T07:15:38;2.20;99.90
2973;DHT22;1496;51.404;7.232;2023-04-03T07:18:05;2.30;99.90
2973;DHT22;1496;51.404;7.232;2023-04-03T07:20:32;2.40;99.90
2973;DHT22;1496;51.404;7.232;2023-04-03T07:22:59;2.50;99.90
2973;DHT22;1496;51.404;7.232;2023-04-03T07:25:29;2.60;99.90
2973;DHT22;1496;51.404;7.232;2023-04-03T07:27:57;2.70;99.90
2973;DHT22;1496;51.404;7.232;2023-04-03T07:33:23;2.80;99.90
2973;DHT22;1496;51.404;7.232;2023-04-03T07:35:50;2.90;99.90
2973;DHT22;1496;51.404;7.232;2023-04-03T07:38:22;3.00;99.90
2973;DHT22;1496;51.404;7.232;2023-04-03T07:40:50;3.00;99.90
2973;DHT22;1496;51.404;7.232;2023-04-03T07:43:18;3.00;99.90
2973;DHT22;1496;51.404;7.232;2023-04-03T07:45:44;3.00;99.90
2973;DHT22;1496;51.404;7.232;2023-04-03T07:48:13;3.10;99.90
2973;DHT22;1496;51.404;7.232;2023-04-03T07:50:42;3.20;99.90
2973;DHT22;1496;51.404;7.232;2023-04-03T07:53:11;3.20;99.90
2973;DHT22;1496;51.404;7.232;2023-04-03T07:55:39;3.40;99.90
2973;DHT22;1496;51.404;7.232;2023-04-03T07:58:16;3.50;99.90
2973;DHT22;1496;51.404;7.232;2023-04-03T08:00:48;3.50;99.90
2973;DHT22;1496;51.404;7.232;2023-04-03T08:03:18;3.60;99.90
2973;DHT22;1496;51.404;7.232;2023-04-03T08:05:47;3.70;99.90
2973;DHT22;1496;51.404;7.232;2023-04-03T08:08:16;3.70;99.90
2973;DHT22;1496;51.404;7.232;2023-04-03T08:10:52;3.70;99.90
2973;DHT22;1496;51.404;7.232;2023-04-03T08:13:21;3.70;99.90
2973;DHT22;1496;51.404;7.232;2023-04-03T08:15:49;3.80;99.90
2973;DHT22;1496;51.404;7.232;2023-04-03T08:18:19;3.90;99.90
2973;DHT22;1496;51.404;7.232;2023-04-03T08:20:48;4.00;99.90
2973;DHT22;1496;51.404;7.232;2023-04-03T08:23:15;4.10;99.90
2973;DHT22;1496;51.404;7.232;2023-04-03T08:25:44;4.20;99.90
2973;DHT22;1496;51.404;7.232;2023-04-03T08:28:16;4.10;99.90
2973;DHT22;1496;51.404;7.232;2023-04-03T08:30:50;4.10;99.90
2973;DHT22;1496;51.404;7.232;2023-04-03T08:33:17;4.00;99.90
2973;DHT22;1496;51.404;7.232;2023-04-03T08:35:44;4.00;99.90
2973;DHT22;1496;51.404;7.232;2023-04-03T08:38:11;4.20;99.90
2973;DHT22;1496;51.404;7.232;2023-04-03T08:40:39;4.30;99.90
2973;DHT22;1496;51.404;7.232;2023-04-03T08:46:00;4.40;99.90
2973;DHT22;1496;51.404;7.232;2023-04-03T08:48:42;4.40;99.90
2973;DHT22;1496;51.404;7.232;2023-04-03T08:51:20;4.40;96.60
2973;DHT22;1496;51.404;7.232;2023-04-03T08:54:00;4.20;92.50
2973;DHT22;1496;51.404;7.232;2023-04-03T08:56:33;4.30;92.70
2973;DHT22;1496;51.404;7.232;2023-04-03T08:59:12;4.70;95.10
2973;DHT22;1496;51.404;7.232;2023-04-03T09:01:41;4.60;95.10
2973;DHT22;1496;51.404;7.232;2023-04-03T09:04:12;4.60;91.70
2973;DHT22;1496;51.404;7.232;2023-04-03T09:06:42;4.60;88.90
2973;DHT22;1496;51.404;7.232;2023-04-03T09:09:41;4.60;85.00
2973;DHT22;1496;51.404;7.232;2023-04-03T09:12:25;4.80;86.10
2973;DHT22;1496;51.404;7.232;2023-04-03T09:15:06;4.90;86.10
2973;DHT22;1496;51.404;7.232;2023-04-03T09:26:02;5.20;77.60
2973;DHT22;1496;51.404;7.232;2023-04-03T09:28:35;5.20;74.70
2973;DHT22;1496;51.404;7.232;2023-04-03T09:31:24;5.40;78.60
2973;DHT22;1496;51.404;7.232;2023-04-03T09:33:58;5.30;69.80
2973;DHT22;1496;51.404;7.232;2023-04-03T09:36:44;5.50;69.70
2973;DHT22;1496;51.404;7.232;2023-04-03T09:39:20;5.40;62.20
2973;DHT22;1496;51.404;7.232;2023-04-03T09:42:02;5.50;63.00
2973;DHT22;1496;51.404;7.232;2023-04-03T09:44:37;5.50;58.00
2973;DHT22;1496;51.404;7.232;2023-04-03T09:47:21;5.40;52.10
2973;DHT22;1496;51.404;7.232;2023-04-03T09:49:50;5.40;48.40
2973;DHT22;1496;51.404;7.232;2023-04-03T09:52:25;5.40;46.20
2973;DHT22;1496;51.404;7.232;2023-04-03T09:54:52;5.50;45.70
2973;DHT22;1496;51.404;7.232;2023-04-03T09:57:19;5.80;47.70
2973;DHT22;1496;51.404;7.232;2023-04-03T09:59:57;5.90;46.00
2973;DHT22;1496;51.404;7.232;2023-04-03T10:02:38;5.70;40.70
2973;DHT22;1496;51.404;7.232;2023-04-03T10:05:30;5.70;39.60
2973;DHT22;1496;51.404;7.232;2023-04-03T10:10:45;6.10;40.30
2973;DHT22;1496;51.404;7.232;2023-04-03T10:13:17;6.10;40.20
2973;DHT22;1496;51.404;7.232;2023-04-03T10:16:09;6.20;39.60
2973;DHT22;1496;51.404;7.232;2023-04-03T10:21:55;6.50;41.80
2973;DHT22;1496;51.404;7.232;2023-04-03T10:33:16;6.60;35.00
2973;DHT22;1496;51.404;7.232;2023-04-03T10:35:53;6.50;34.30
2973;DHT22;1496;51.404;7.232;2023-04-03T10:39:00;6.70;36.40
2973;DHT22;1496;51.404;7.232;2023-04-03T10:50:26;6.90;32.30
2973;DHT22;1496;51.404;7.232;2023-04-03T10:53:21;6.80;30.10
2973;DHT22;1496;51.404;7.232;2023-04-03T10:56:00;6.80;29.00
2973;DHT22;1496;51.404;7.232;2023-04-03T10:58:40;6.90;29.00
2973;DHT22;1496;51.404;7.232;2023-04-03T11:01:13;7.10;29.00
2973;DHT22;1496;51.404;7.232;2023-04-03T11:03:44;6.90;26.10
2973;DHT22;1496;51.404;7.232;2023-04-03T11:06:15;7.00;23.20
2973;DHT22;1496;51.404;7.232;2023-04-03T11:11:25;7.00;20.90
2973;DHT22;1496;51.404;7.232;2023-04-03T11:16:48;7.00;17.50
2973;DHT22;1496;51.404;7.232;2023-04-03T11:22:32;7.40;19.40
2973;DHT22;1496;51.404;7.232;2023-04-03T11:25:20;7.40;17.50
2973;DHT22;1496;51.404;7.232;2023-04-03T11:28:01;7.50;15.00
2973;DHT22;1496;51.404;7.232;2023-04-03T11:30:34;7.50;13.30
2973;DHT22;1496;51.404;7.232;2023-04-03T11:36:25;7.40;10.40
2973;DHT22;1496;51.404;7.232;2023-04-03T11:39:08;7.40;10.00
2973;DHT22;1496;51.404;7.232;2023-04-03T11:41:37;7.40;8.60
2973;DHT22;1496;51.404;7.232;2023-04-03T11:44:29;7.50;8.90
2973;DHT22;1496;51.404;7.232;2023-04-03T11:46:58;7.70;10.30
2973;DHT22;1496;51.404;7.232;2023-04-03T11:49:56;7.50;6.40
2973;DHT22;1496;51.404;7.232;2023-04-03T12:03:31;7.70;2.20
2973;DHT22;1496;51.404;7.232;2023-04-03T12:08:46;7.60;1.00
2973;DHT22;1496;51.404;7.232;2023-04-03T12:11:14;7.60;1.00
2973;DHT22;1496;51.404;7.232;2023-04-03T12:14:04;7.60;1.00
2973;DHT22;1496;51.404;7.232;2023-04-03T12:24:24;7.90;1.00
2973;DHT22;1496;51.404;7.232;2023-04-03T12:35:47;8.00;1.00
2973;DHT22;1496;51.404;7.232;2023-04-03T12:44:04;7.70;1.00
2973;DHT22;1496;51.404;7.232;2023-04-03T12:46:46;7.60;1.00
2973;DHT22;1496;51.404;7.232;2023-04-03T12:49:37;7.80;1.00
2973;DHT22;1496;51.404;7.232;2023-04-03T12:52:37;7.80;1.00
2973;DHT22;1496;51.404;7.232;2023-04-03T12:55:16;7.70;1.00
2973;DHT22;1496;51.404;7.232;2023-04-03T12:57:43;7.70;1.00
2973;DHT22;1496;51.404;7.232;2023-04-03T13:02:56;7.70;1.00
2973;DHT22;1496;51.404;7.232;2023-04-03T13:05:25;7.60;1.00
2973;DHT22;1496;51.404;7.232;2023-04-03T13:08:00;7.70;1.00
2973;DHT22;1496;51.404;7.232;2023-04-03T13:10:35;7.80;1.00
2973;DHT22;1496;51.404;7.232;2023-04-03T13:13:10;7.90;1.00
2973;DHT22;1496;51.404;7.232;2023-04-03T13:15:43;7.60;1.00
2973;DHT22;1496;51.404;7.232;2023-04-03T13:18:31;7.80;1.00
2973;DHT22;1496;51.404;7.232;2023-04-03T13:23:33;7.70;1.00
2973;DHT22;1496;51.404;7.232;2023-04-03T13:26:03;7.60;1.00
2973;DHT22;1496;51.404;7.232;2023-04-03T13:28:32;7.60;1.00
2973;DHT22;1496;51.404;7.232;2023-04-03T13:33:53;7.90;1.00
2973;DHT22;1496;51.404;7.232;2023-04-03T13:36:32;7.80;1.00
2973;DHT22;1496;51.404;7.232;2023-04-03T13:39:17;7.60;1.00
2973;DHT22;1496;51.404;7.232;2023-04-03T13:42:21;7.80;1.00
2973;DHT22;1496;51.404;7.232;2023-04-03T13:44:49;8.00;1.00
2973;DHT22;1496;51.404;7.232;2023-04-03T13:47:20;8.00;1.00
2973;DHT22;1496;51.404;7.232;2023-04-03T13:50:13;7.80;1.00
2973;DHT22;1496;51.404;7.232;2023-04-03T13:52:54;7.80;1.00
2973;DHT22;1496;51.404;7.232;2023-04-03T14:02:56;7.80;1.00
2973;DHT22;1496;51.404;7.232;2023-04-03T14:05:24;7.70;1.00
2973;DHT22;1496;51.404;7.232;2023-04-03T14:07:54;7.70;1.00
2973;DHT22;1496;51.404;7.232;2023-04-03T14:10:22;7.70;1.00
2973;DHT22;1496;51.404;7.232;2023-04-03T14:12:51;7.70;1.00
2973;DHT22;1496;51.404;7.232;2023-04-03T14:15:24;7.60;1.00
2973;DHT22;1496;51.404;7.232;2023-04-03T14:17:52;7.70;1.00
2973;DHT22;1496;51.404;7.232;2023-04-03T14:20:22;7.80;1.00
2973;DHT22;1496;51.404;7.232;2023-04-03T14:22:50;7.70;1.00
2973;DHT22;1496;51.404;7.232;2023-04-03T14:25:22;7.70;1.00
2973;DHT22;1496;51.404;7.232;2023-04-03T14:27:53;8.00;1.00
2973;DHT22;1496;51.404;7.232;2023-04-03T14:30:26;7.90;1.00
2973;DHT22;1496;51.404;7.232;2023-04-03T14:32:52;7.80;1.00
2973;DHT22;1496;51.404;7.232;2023-04-03T14:35:20;7.80;1.00
2973;DHT22;1496;51.404;7.232;2023-04-03T14:37:48;7.80;1.00
2973;DHT22;1496;51.404;7.232;2023-04-03T14:40:23;7.70;1.00
2973;DHT22;1496;51.404;7.232;2023-04-03T14:42:50;7.70;1.00
2973;DHT22;1496;51.404;7.232;2023-04-03T14:45:21;7.70;1.00
2973;DHT22;1496;51.404;7.232;2023-04-03T14:47:50;7.70;1.00
2973;DHT22;1496;51.404;7.232;2023-04-03T14:50:21;7.70;1.00
2973;DHT22;1496;51.404;7.232;2023-04-03T14:52:51;7.60;1.00
2973;DHT22;1496;51.404;7.232;2023-04-03T14:55:20;7.50;1.00
2973;DHT22;1496;51.404;7.232;2023-04-03T14:57:49;7.40;1.00
2973;DHT22;1496;51.404;7.232;2023-04-03T15:00:20;7.40;1.00
2973;DHT22;1496;51.404;7.232;2023-04-03T15:02:47;7.40;1.00
2973;DHT22;1496;51.404;7.232;2023-04-03T15:05:14;7.40;1.00
2973;DHT22;1496;51.404;7.232;2023-04-03T15:07:53;7.30;1.00
2973;DHT22;1496;51.404;7.232;2023-04-03T15:10:29;7.30;1.00
2973;DHT22;1496;51.404;7.232;2023-04-03T15:12:56;7.30;1.00
2973;DHT22;1496;51.404;7.232;2023-04-03T15:15:24;7.30;1.00
2973;DHT22;1496;51.404;7.232;2023-04-03T15:17:56;7.20;1.00
2973;DHT22;1496;51.404;7.232;2023-04-03T15:20:29;7.10;1.00
2973;DHT22;1496;51.404;7.232;2023-04-03T15:22:58;7.10;1.00
2973;DHT22;1496;51.404;7.232;2023-04-03T15:25:28;7.10;1.00
2973;DHT22;1496;51.404;7.232;2023-04-03T15:27:56;7.00;1.00
2973;DHT22;1496;51.404;7.232;2023-04-03T15:30:23;7.00;1.00
2973;DHT22;1496;51.404;7.232;2023-04-03T15:32:50;7.00;1.00
2973;DHT22;1496;51.404;7.232;2023-04-03T15:35:19;7.00;1.00
2973;DHT22;1496;51.404;7.232;2023-04-03T15:37:46;7.00;1.00
2973;DHT22;1496;51.404;7.232;2023-04-03T15:40:15;7.00;1.00
2973;DHT22;1496;51.404;7.232;2023-04-03T15:42:42;7.00;1.00
2973;DHT22;1496;51.404;7.232;2023-04-03T15:45:11;7.00;1.00
2973;DHT22;1496;51.404;7.232;2023-04-03T15:47:38;6.90;1.00
2973;DHT22;1496;51.404;7.232;2023-04-03T15:50:06;6.90;1.00
2973;DHT22;1496;51.404;7.232;2023-04-03T15:52:35;6.80;1.00
2973;DHT22;1496;51.404;7.232;2023-04-03T15:55:03;6.80;1.00
2973;DHT22;1496;51.404;7.232;2023-04-03T15:57:30;6.90;1.00
2973;DHT22;1496;51.404;7.232;2023-04-03T15:59:58;6.80;1.00
2973;DHT22;1496;51.404;7.232;2023-04-03T16:02:24;6.80;1.00
2973;DHT22;1496;51.404;7.232;2023-04-03T16:04:55;6.80;1.00
2973;DHT22;1496;51.404;7.232;2023-04-03T16:07:22;6.80;1.00
2973;DHT22;1496;51.404;7.232;2023-04-03T16:09:49;6.70;1.00
2973;DHT22;1496;51.404;7.232;2023-04-03T16:12:16;6.70;1.00
2973;DHT22;1496;51.404;7.232;2023-04-03T16:14:43;6.60;1.00
2973;DHT22;1496;51.404;7.232;2023-04-03T16:17:09;6.60;1.00
2973;DHT22;1496;51.404;7.232;2023-04-03T16:19:37;6.60;1.00
2973;DHT22;1496;51.404;7.232;2023-04-03T16:22:03;6.60;1.00
2973;DHT22;1496;51.404;7.232;2023-04-03T16:24:30;6.60;1.00
2973;DHT22;1496;51.404;7.232;2023-04-03T16:26:58;6.60;1.00
2973;DHT22;1496;51.404;7.232;2023-04-03T16:29:33;6.60;1.00
2973;DHT22;1496;51.404;7.232;2023-04-03T16:32:03;6.60;1.00
2973;DHT22;1496;51.404;7.232;2023-04-03T16:34:30;6.60;1.00
2973;DHT22;1496;51.404;7.232;2023-04-03T16:37:00;6.50;1.00
2973;DHT22;1496;51.404;7.232;2023-04-03T16:39:28;6.50;1.00
2973;DHT22;1496;51.404;7.232;2023-04-03T16:41:55;6.50;1.00
2973;DHT22;1496;51.404;7.232;2023-04-03T16:44:22;6.50;1.00
2973;DHT22;1496;51.404;7.232;2023-04-03T16:46:49;6.40;1.00
2973;DHT22;1496;51.404;7.232;2023-04-03T16:49:17;6.40;1.00
2973;DHT22;1496;51.404;7.232;2023-04-03T16:51:49;6.40;1.00
2973;DHT22;1496;51.404;7.232;2023-04-03T16:54:16;6.40;1.00
2973;DHT22;1496;51.404;7.232;2023-04-03T16:56:43;6.40;1.00
2973;DHT22;1496;51.404;7.232;2023-04-03T16:59:09;6.40;1.00
2973;DHT22;1496;51.404;7.232;2023-04-03T17:01:36;6.40;1.00
2973;DHT22;1496;51.404;7.232;2023-04-03T17:04:03;6.30;1.00
2973;DHT22;1496;51.404;7.232;2023-04-03T17:06:30;6.30;1.00
2973;DHT22;1496;51.404;7.232;2023-04-03T17:08:58;6.30;1.00
2973;DHT22;1496;51.404;7.232;2023-04-03T17:11:30;6.30;1.00
2973;DHT22;1496;51.404;7.232;2023-04-03T17:13:58;6.20;1.00
2973;DHT22;1496;51.404;7.232;2023-04-03T17:16:25;6.20;1.00
2973;DHT22;1496;51.404;7.232;2023-04-03T17:18:53;6.10;1.00
2973;DHT22;1496;51.404;7.232;2023-04-03T17:21:20;6.10;1.00
2973;DHT22;1496;51.404;7.232;2023-04-03T17:23:50;6.00;1.00
2973;DHT22;1496;51.404;7.232;2023-04-03T17:26:18;6.00;1.00
2973;DHT22;1496;51.404;7.232;2023-04-03T17:28:47;6.00;1.00
2973;DHT22;1496;51.404;7.232;2023-04-03T17:31:15;6.00;1.00
2973;DHT22;1496;51.404;7.232;2023-04-03T17:33:41;6.00;1.00
2973;DHT22;1496;51.404;7.232;2023-04-03T17:36:11;6.00;1.00
2973;DHT22;1496;51.404;7.232;2023-04-03T17:38:39;5.90;1.00
2973;DHT22;1496;51.404;7.232;2023-04-03T17:41:07;5.90;1.00
2973;DHT22;1496;51.404;7.232;2023-04-03T17:43:36;5.90;1.00
2973;DHT22;1496;51.404;7.232;2023-04-03T17:46:04;5.80;1.00
2973;DHT22;1496;51.404;7.232;2023-04-03T17:48:32;5.80;1.00
2973;DHT22;1496;51.404;7.232;2023-04-03T17:51:02;5.80;1.00
2973;DHT22;1496;51.404;7.232;2023-04-03T17:53:29;5.80;1.00
2973;DHT22;1496;51.404;7.232;2023-04-03T17:55:56;5.70;1.00
2973;DHT22;1496;51.404;7.232;2023-04-03T17:58:24;5.70;1.00
2973;DHT22;1496;51.404;7.232;2023-04-03T18:00:51;5.70;1.00
2973;DHT22;1496;51.404;7.232;2023-04-03T18:03:19;5.60;1.00
2973;DHT22;1496;51.404;7.232;2023-04-03T18:05:46;5.60;1.00
2973;DHT22;1496;51.404;7.232;2023-04-03T18:08:13;5.60;1.00
2973;DHT22;1496;51.404;7.232;2023-04-03T18:10:39;5.60;1.00
2973;DHT22;1496;51.404;7.232;2023-04-03T18:13:07;5.60;1.00
2973;DHT22;1496;51.404;7.232;2023-04-03T18:15:34;5.50;1.00
2973;DHT22;1496;51.404;7.232;2023-04-03T18:18:09;5.50;1.00
2973;DHT22;1496;51.404;7.232;2023-04-03T18:20:37;5.50;1.00
2973;DHT22;1496;51.404;7.232;2023-04-03T18:23:05;5.40;1.00
2973;DHT22;1496;51.404;7.232;2023-04-03T18:25:32;5.40;1.00
2973;DHT22;1496;51.404;7.232;2023-04-03T18:27:58;5.40;1.00
2973;DHT22;1496;51.404;7.232;2023-04-03T18:30:34;5.40;1.00
2973;DHT22;1496;51.404;7.232;2023-04-03T18:33:02;5.30;1.00
2973;DHT22;1496;51.404;7.232;2023-04-03T18:35:30;5.30;1.00